Date,TemperatureHighF,TemperatureAvgF,TemperatureLowF,DewpointHighF,DewpointAvgF,DewpointLowF,HumidityHigh,HumidityAvg,HumidityLow,PressureMaxIn,PressureMinIn,WindSpeedMaxMPH,WindSpeedAvgMPH,GustSpeedMaxMPH,PrecipitationSumIn
2013-5-1,77,60,43,45,39,34,77,51,26,30.38,30.23,14,4,14,0.00
2013-5-2,79,60,43,52,47,40,89,64,34,30.40,30.24,12,2,12,0.00
2013-5-3,75,60,48,48,44,38,89,61,32,30.35,30.24,16,4,16,0.00
2013-5-4,77,58,42,53,45,39,89,66,35,30.28,30.12,15,3,15,0.17
2013-5-5,74,56,42,51,44,39,89,67,39,30.21,30.09,13,4,13,1.91
2013-5-6,72,57,43,61,51,40,89,82,65,30.17,30.04,11,3,11,0.00
2013-5-7,77,62,53,68,58,50,89,86,67,30.06,29.95,18,4,18,0.00
2013-5-8,77,63,57,67,58,54,89,85,61,29.96,29.84,11,2,11,0.02
2013-5-9,70,61,54,64,58,51,89,88,77,29.92,29.85,11,2,11,0.00
2013-5-10,83,67,53,68,59,50,89,78,49,29.95,29.81,14,2,14,0.31
2013-5-11,74,64,60,70,61,56,89,89,85,29.86,29.64,11,2,11,0.24
2013-5-12,61,56,46,56,41,27,89,61,32,29.93,29.67,19,6,19,0.02
2013-5-13,55,47,40,36,31,24,79,55,32,30.08,29.92,17,4,17,0.00
2013-5-14,62,49,36,47,33,26,89,58,27,30.13,29.97,12,2,12,0.00
2013-5-15,74,60,49,66,56,46,89,86,75,30.00,29.64,11,2,11,0.00
2013-5-16,83,69,58,72,60,50,89,75,41,29.83,29.67,12,2,12,0.02
2013-5-17,78,67,56,51,46,40,66,46,31,30.11,29.83,14,5,14,0.00
2013-5-18,70,63,58,59,54,43,89,72,43,30.20,30.11,14,4,14,0.00
2013-5-19,66,61,58,63,58,55,89,89,89,30.18,30.06,11,3,11,0.00
2013-5-20,84,70,59,76,66,56,89,88,76,30.09,29.91,7,1,7,0.00
2013-5-21,88,75,64,81,70,61,89,87,76,29.93,29.80,13,2,13,0.00
2013-5-22,85,71,67,78,68,64,89,89,89,29.85,29.78,6,2,6,0.00